Time;durP1;ratioP1;P1;durP2;ratioP2;P2;SDS_P1;SDS_P2;PMS_P1;PMS_P2;Temp;Humidity;BMP_temperature;BMP_pressure;BME280_temperature;BME280_humidity;BME280_pressure;Samples;Min_cycle;Max_cycle;Signal;HPM_P1;HPM_P2
2021/05/23 00:02:07;;;;;;;655.53;109.10;;;10.30;99.90;;;;;;5133358;27;20385;-74
2021/05/23 00:04:33;;;;;;;662.05;109.15;;;10.30;99.90;;;;;;5115078;27;20400;-73
2021/05/23 00:06:59;;;;;;;663.55;109.78;;;10.30;99.90;;;;;;5133472;27;20376;-73
2021/05/23 00:09:26;;;;;;;654.10;108.77;;;10.30;99.90;;;;;;5114553;27;20853;-72
2021/05/23 00:11:52;;;;;;;664.20;110.27;;;10.50;99.90;;;;;;5097953;27;20384;-70
2021/05/23 00:14:18;;;;;;;676.40;108.72;;;10.50;99.90;;;;;;5114312;27;20384;-70
2021/05/23 00:16:45;;;;;;;656.78;112.68;;;10.60;99.90;;;;;;5114349;27;20396;-70
2021/05/23 00:19:11;;;;;;;665.53;109.53;;;10.60;99.90;;;;;;5132396;27;20761;-69
2021/05/23 00:21:37;;;;;;;654.63;111.32;;;10.60;99.90;;;;;;5131509;27;20396;-68
2021/05/23 00:24:04;;;;;;;654.03;108.22;;;10.70;99.90;;;;;;5113342;27;20393;-68
2021/05/23 00:26:31;;;;;;;656.43;108.27;;;10.60;99.90;;;;;;5114726;27;20796;-68
2021/05/23 00:28:57;;;;;;;649.97;106.60;;;10.60;99.90;;;;;;5113685;27;20861;-69
2021/05/23 00:31:23;;;;;;;632.58;105.70;;;10.60;99.90;;;;;;5133073;27;20380;-68
2021/05/23 00:33:49;;;;;;;542.17;105.07;;;10.60;99.90;;;;;;5132438;27;20405;-70
2021/05/23 00:36:15;;;;;;;470.13;104.88;;;10.60;99.90;;;;;;5132593;27;20377;-69
2021/05/23 00:38:43;;;;;;;652.63;109.50;;;10.60;99.90;;;;;;5132603;27;20401;-69
2021/05/23 00:41:09;;;;;;;656.25;108.82;;;10.70;99.90;;;;;;5132603;27;20436;-69
2021/05/23 00:43:35;;;;;;;654.05;110.50;;;10.70;99.90;;;;;;5132361;27;20388;-68
2021/05/23 00:46:01;;;;;;;657.85;109.65;;;10.70;99.90;;;;;;5132789;27;20377;-69
2021/05/23 00:48:27;;;;;;;661.30;110.80;;;10.70;99.90;;;;;;5131537;27;20382;-68
2021/05/23 00:50:53;;;;;;;654.00;109.43;;;10.70;99.90;;;;;;5132292;27;20389;-68
2021/05/23 00:53:20;;;;;;;658.15;108.03;;;10.70;99.90;;;;;;5132592;27;20384;-68
2021/05/23 00:55:46;;;;;;;658.25;112.32;;;10.70;99.90;;;;;;5113678;27;20396;-69
2021/05/23 00:58:12;;;;;;;660.60;113.38;;;10.70;99.90;;;;;;5132175;27;20396;-68
2021/05/23 01:00:42;;;;;;;575.65;111.22;;;10.70;99.90;;;;;;5132038;27;20385;-67
2021/05/23 01:03:31;;;;;;;645.30;104.82;;;10.80;99.90;;;;;;5131964;27;20404;-70
2021/05/23 01:05:58;;;;;;;650.40;108.07;;;10.70;99.90;;;;;;5118776;27;20390;-69
2021/05/23 01:08:24;;;;;;;651.25;107.80;;;10.80;99.90;;;;;;5132082;27;20385;-68
2021/05/23 01:10:54;;;;;;;652.80;106.72;;;10.80;99.90;;;;;;5132078;27;20385;-68
2021/05/23 01:13:57;;;;;;;20.98;6.38;;;10.80;99.90;;;;;;5113927;27;20373;-69
2021/05/23 01:16:31;;;;;;;16.55;4.32;;;10.90;99.90;;;;;;5133331;27;20186;-69
2021/05/23 01:19:20;;;;;;;10.75;3.58;;;10.90;99.90;;;;;;5115665;27;20219;-69
2021/05/23 01:22:16;;;;;;;547.53;69.95;;;10.90;99.90;;;;;;5132661;27;20191;-69
2021/05/23 01:25:03;;;;;;;684.95;118.97;;;10.90;99.90;;;;;;5131218;27;20721;-69
2021/05/23 01:27:37;;;;;;;684.60;122.55;;;10.80;99.90;;;;;;5113775;27;20385;-70
2021/05/23 01:30:07;;;;;;;687.57;124.20;;;10.80;99.90;;;;;;5108202;28;20729;-70
2021/05/23 01:32:34;;;;;;;684.80;124.72;;;10.80;99.90;;;;;;5113359;28;20405;-71
2021/05/23 01:35:00;;;;;;;686.60;124.85;;;10.80;99.90;;;;;;5113953;28;20385;-70
2021/05/23 01:37:26;;;;;;;687.08;123.05;;;10.80;99.90;;;;;;5132078;28;20381;-70
2021/05/23 01:39:52;;;;;;;689.45;124.68;;;10.80;99.90;;;;;;5113191;28;20404;-70
2021/05/23 01:42:19;;;;;;;691.75;124.97;;;10.80;99.90;;;;;;5114095;28;20369;-70
2021/05/23 01:44:45;;;;;;;687.75;126.25;;;10.80;99.90;;;;;;5096663;28;20381;-69
2021/05/23 01:47:11;;;;;;;695.05;124.55;;;10.80;99.90;;;;;;5096461;28;20380;-70
2021/05/23 01:49:37;;;;;;;689.35;126.75;;;10.80;99.90;;;;;;5095845;28;20388;-70
2021/05/23 01:52:03;;;;;;;692.20;126.00;;;10.80;99.90;;;;;;5096444;28;20384;-69
2021/05/23 01:54:30;;;;;;;698.72;127.57;;;10.80;99.90;;;;;;5131206;28;20396;-70
2021/05/23 01:56:56;;;;;;;693.47;126.47;;;10.70;99.90;;;;;;5113352;28;20377;-70
2021/05/23 01:59:22;;;;;;;697.17;128.80;;;10.70;99.90;;;;;;5131632;28;20750;-70
2021/05/23 02:01:48;;;;;;;698.17;129.67;;;10.70;99.90;;;;;;5131247;28;20388;-70
2021/05/23 02:04:14;;;;;;;694.80;129.40;;;10.70;99.90;;;;;;5112265;28;20404;-70
2021/05/23 02:06:40;;;;;;;692.03;129.27;;;10.70;99.90;;;;;;5131346;28;20376;-70
2021/05/23 02:09:06;;;;;;;692.40;128.70;;;10.70;99.90;;;;;;5131779;27;20390;-69
2021/05/23 02:11:33;;;;;;;692.27;129.20;;;10.80;99.90;;;;;;5135057;27;20849;-69
2021/05/23 02:13:59;;;;;;;694.67;131.30;;;10.80;99.90;;;;;;5134253;27;20400;-70
2021/05/23 02:16:25;;;;;;;694.20;132.52;;;10.80;99.90;;;;;;5135043;27;20725;-69
2021/05/23 02:18:51;;;;;;;692.33;128.52;;;10.80;99.90;;;;;;5134436;27;20405;-69
2021/05/23 02:21:17;;;;;;;679.77;129.00;;;10.80;99.90;;;;;;5116988;27;20384;-69
2021/05/23 02:23:55;;;;;;;666.70;132.23;;;10.80;99.90;;;;;;5134980;27;20393;-70
2021/05/23 02:26:21;;;;;;;685.53;127.65;;;10.90;99.90;;;;;;5117174;27;20377;-70
2021/05/23 02:28:47;;;;;;;683.15;129.32;;;10.90;99.90;;;;;;5116211;27;20392;-69
2021/05/23 02:31:13;;;;;;;683.33;129.98;;;10.80;99.90;;;;;;5134691;27;20716;-69
2021/05/23 02:33:39;;;;;;;677.28;132.57;;;10.80;99.90;;;;;;5134228;27;20393;-69
2021/05/23 02:36:06;;;;;;;690.35;128.65;;;10.80;99.90;;;;;;5134904;27;20399;-69
2021/05/23 02:38:32;;;;;;;678.53;131.00;;;10.80;99.90;;;;;;5134861;27;20403;-69
2021/05/23 02:40:58;;;;;;;676.60;130.43;;;10.80;99.90;;;;;;5134955;27;20396;-69
2021/05/23 02:43:24;;;;;;;653.72;129.38;;;10.80;99.90;;;;;;5134580;27;20388;-69
2021/05/23 02:45:50;;;;;;;684.83;129.55;;;10.90;99.90;;;;;;5133742;27;20385;-69
2021/05/23 02:48:17;;;;;;;659.53;128.07;;;10.90;99.90;;;;;;5134944;27;20386;-71
2021/05/23 02:50:46;;;;;;;648.25;131.18;;;10.90;99.90;;;;;;5134495;27;20396;-70
2021/05/23 02:53:12;;;;;;;661.83;130.75;;;10.90;99.90;;;;;;5135120;27;20373;-69
2021/05/23 02:55:39;;;;;;;651.25;131.85;;;10.90;99.90;;;;;;5134485;27;20381;-69
2021/05/23 02:58:06;;;;;;;679.22;129.45;;;10.90;99.90;;;;;;5099522;27;20381;-70
2021/05/23 03:00:33;;;;;;;618.47;132.07;;;10.80;99.90;;;;;;5134562;27;20409;-70
2021/05/23 03:02:59;;;;;;;643.42;131.55;;;10.90;99.90;;;;;;5133320;27;20404;-70
2021/05/23 03:05:25;;;;;;;620.25;128.63;;;10.80;99.90;;;;;;5134804;27;20381;-69
2021/05/23 03:07:55;;;;;;;643.63;131.30;;;10.90;99.90;;;;;;5134447;27;20396;-70
2021/05/23 03:10:33;;;;;;;626.63;130.23;;;10.90;99.90;;;;;;5133739;27;20373;-69
2021/05/23 03:13:00;;;;;;;642.13;132.52;;;10.80;99.90;;;;;;5116158;27;20382;-70
2021/05/23 03:15:27;;;;;;;654.70;129.73;;;10.80;99.90;;;;;;5134357;27;20384;-70
2021/05/23 03:17:53;;;;;;;657.38;129.00;;;10.80;99.90;;;;;;5134070;27;20392;-71
2021/05/23 03:20:19;;;;;;;675.10;129.45;;;10.90;99.90;;;;;;5133862;27;20400;-70
2021/05/23 03:22:46;;;;;;;669.92;126.47;;;10.90;99.90;;;;;;5134021;27;20377;-70
2021/05/23 03:25:13;;;;;;;657.08;125.63;;;10.80;99.90;;;;;;5116160;27;20381;-70
2021/05/23 03:27:39;;;;;;;667.25;125.18;;;10.80;99.90;;;;;;5133374;27;20733;-70
2021/05/23 03:30:07;;;;;;;672.55;125.05;;;10.80;99.90;;;;;;5134301;27;20392;-71
2021/05/23 03:32:33;;;;;;;673.15;126.57;;;10.80;99.90;;;;;;5134043;27;20401;-71
2021/05/23 03:34:59;;;;;;;664.05;126.10;;;10.80;99.90;;;;;;5133795;27;20393;-71
2021/05/23 03:37:25;;;;;;;659.85;124.65;;;10.80;99.90;;;;;;5115985;27;20380;-70
2021/05/23 03:39:52;;;;;;;624.65;127.32;;;10.80;99.90;;;;;;5133476;27;20762;-69
2021/05/23 03:42:18;;;;;;;645.97;126.57;;;10.80;99.90;;;;;;5132622;27;20373;-70
2021/05/23 03:44:44;;;;;;;641.10;126.38;;;10.90;99.90;;;;;;5133281;27;20384;-71
2021/05/23 03:47:10;;;;;;;582.45;130.05;;;10.80;99.90;;;;;;5133379;27;20726;-69
2021/05/23 03:49:38;;;;;;;582.60;129.43;;;10.80;99.90;;;;;;5133851;27;20385;-70
2021/05/23 03:52:08;;;;;;;600.60;129.27;;;10.80;99.90;;;;;;5132486;27;20392;-70
2021/05/23 03:54:34;;;;;;;586.72;127.55;;;10.80;99.90;;;;;;5115017;27;20393;-70
2021/05/23 03:57:00;;;;;;;596.67;131.05;;;10.80;99.90;;;;;;5133508;27;20380;-69
2021/05/23 03:59:26;;;;;;;568.90;129.98;;;10.80;99.90;;;;;;5133623;27;20749;-69
2021/05/23 04:01:52;;;;;;;535.45;130.73;;;10.80;99.90;;;;;;5114917;27;20385;-71
2021/05/23 04:04:21;;;;;;;521.90;128.25;;;10.80;99.90;;;;;;5133753;27;20385;-70
2021/05/23 04:06:49;;;;;;;526.30;127.65;;;10.80;99.90;;;;;;5133105;27;20822;-70
2021/05/23 04:09:17;;;;;;;482.48;127.63;;;10.90;99.90;;;;;;5132679;27;20411;-70
2021/05/23 04:11:46;;;;;;;135.75;20.05;;;10.90;99.90;;;;;;5115738;27;20168;-68
2021/05/23 04:14:13;;;;;;;13.73;4.17;;;10.90;99.90;;;;;;5132712;27;20760;-68
2021/05/23 04:16:39;;;;;;;53.63;11.10;;;10.90;99.90;;;;;;5134556;27;20172;-68
2021/05/23 04:19:05;;;;;;;16.73;2.75;;;10.90;99.90;;;;;;5116211;27;20186;-68
2021/05/23 04:21:31;;;;;;;5.45;1.75;;;10.90;99.90;;;;;;5134362;27;20176;-68
2021/05/23 04:23:57;;;;;;;7.07;2.13;;;10.90;99.90;;;;;;5134317;27;20176;-68
2021/05/23 04:26:23;;;;;;;83.00;13.00;;;10.90;99.90;;;;;;5098932;27;20176;-68
2021/05/23 04:28:49;;;;;;;6.82;2.38;;;10.80;99.90;;;;;;5134071;27;20176;-68
2021/05/23 04:31:15;;;;;;;211.07;26.83;;;10.90;99.90;;;;;;5115390;27;20556;-68
2021/05/23 04:33:42;;;;;;;25.38;5.55;;;10.90;99.90;;;;;;5123339;27;20430;-70
2021/05/23 04:36:08;;;;;;;;;;;10.90;99.90;;;;;;5133769;27;20171;-70
2021/05/23 04:38:34;;;;;;;23.23;6.07;;;10.90;99.90;;;;;;5127502;27;20400;-69
2021/05/23 04:41:00;;;;;;;26.73;6.03;;;10.90;99.90;;;;;;5131044;27;20769;-71
2021/05/23 04:43:26;;;;;;;18.90;4.05;;;10.80;99.90;;;;;;5133947;27;20179;-70
2021/05/23 04:45:52;;;;;;;65.30;16.90;;;10.70;99.90;;;;;;5115067;27;20176;-69
2021/05/23 04:48:18;;;;;;;10.20;3.22;;;10.70;99.90;;;;;;5133782;27;20529;-69
2021/05/23 04:50:44;;;;;;;20.80;4.07;;;10.70;99.90;;;;;;5133238;27;20180;-70
2021/05/23 04:53:10;;;;;;;12.60;3.65;;;10.70;99.90;;;;;;5134280;27;20195;-70
2021/05/23 04:55:36;;;;;;;13.98;3.28;;;10.80;99.90;;;;;;5133634;27;20192;-69
2021/05/23 04:58:03;;;;;;;10.35;3.53;;;10.80;99.90;;;;;;5133384;27;20180;-68
2021/05/23 05:00:29;;;;;;;20.17;3.97;;;10.80;99.90;;;;;;5133984;27;20206;-69
2021/05/23 05:02:55;;;;;;;10.38;2.67;;;10.80;99.90;;;;;;5115252;27;20180;-69
2021/05/23 05:05:21;;;;;;;10.20;3.25;;;10.90;99.90;;;;;;5133563;27;20628;-69
2021/05/23 05:07:47;;;;;;;10.13;3.35;;;10.90;99.90;;;;;;5133468;27;20172;-69
2021/05/23 05:10:14;;;;;;;13.27;3.45;;;10.90;99.90;;;;;;5115177;27;20180;-69
2021/05/23 05:12:40;;;;;;;13.50;3.50;;;10.90;99.90;;;;;;5114415;27;20186;-69
2021/05/23 05:15:07;;;;;;;17.35;3.15;;;10.90;99.90;;;;;;5115110;27;20650;-70
2021/05/23 05:17:33;;;;;;;11.70;3.17;;;10.90;99.90;;;;;;5114942;28;20182;-70
2021/05/23 05:19:59;;;;;;;13.80;3.38;;;11.00;99.90;;;;;;5114908;27;20579;-70
2021/05/23 05:22:25;;;;;;;11.40;3.40;;;11.00;99.90;;;;;;5115295;27;20183;-72
2021/05/23 05:24:51;;;;;;;9.45;3.40;;;10.90;99.90;;;;;;5132051;27;20179;-74
2021/05/23 05:27:20;;;;;;;10.43;3.22;;;11.00;99.90;;;;;;5133445;27;20180;-72
2021/05/23 05:29:46;;;;;;;11.02;3.38;;;11.00;99.90;;;;;;5133201;27;20179;-72
2021/05/23 05:32:12;;;;;;;14.60;4.00;;;11.10;99.90;;;;;;5132741;27;20224;-72
2021/05/23 05:34:38;;;;;;;20.58;3.65;;;11.10;99.90;;;;;;5133198;28;20163;-73
2021/05/23 05:37:04;;;;;;;8.02;3.58;;;11.00;99.90;;;;;;5113351;28;20199;-72
2021/05/23 05:39:30;;;;;;;10.35;3.70;;;11.10;99.90;;;;;;5133283;28;20215;-72
2021/05/23 05:41:58;;;;;;;13.00;3.28;;;11.20;99.90;;;;;;5133302;28;20176;-73
2021/05/23 05:44:24;;;;;;;8.77;2.97;;;11.20;99.90;;;;;;5115589;28;20167;-73
2021/05/23 05:46:51;;;;;;;19.25;3.83;;;11.20;99.90;;;;;;5137716;27;20178;-72
2021/05/23 05:49:17;;;;;;;16.30;3.35;;;11.30;99.90;;;;;;5136812;27;20180;-73
2021/05/23 05:51:44;;;;;;;5.00;2.50;;;11.30;99.90;;;;;;5136784;27;20549;-72
2021/05/23 05:54:10;;;;;;;10.10;3.28;;;11.30;99.90;;;;;;5135739;27;20212;-73
2021/05/23 05:56:37;;;;;;;12.60;2.97;;;11.20;99.90;;;;;;5137601;27;20176;-73
2021/05/23 05:59:04;;;;;;;9.57;3.33;;;11.20;99.90;;;;;;5136150;27;20168;-72
2021/05/23 06:01:30;;;;;;;13.57;3.28;;;11.20;99.90;;;;;;5118674;27;20208;-72
2021/05/23 06:03:56;;;;;;;8.85;2.97;;;11.20;99.90;;;;;;5117593;27;20212;-72
2021/05/23 06:06:24;;;;;;;11.43;3.10;;;11.20;99.90;;;;;;5137933;27;20176;-71
2021/05/23 06:08:50;;;;;;;13.73;2.53;;;11.20;99.90;;;;;;5118508;27;20191;-72
2021/05/23 06:11:16;;;;;;;6.20;2.28;;;11.30;99.90;;;;;;5137662;27;20612;-76
2021/05/23 06:13:42;;;;;;;10.07;2.40;;;11.20;99.90;;;;;;5137607;27;20172;-72
2021/05/23 06:16:08;;;;;;;5.95;1.77;;;11.10;99.90;;;;;;5136814;27;20190;-71
2021/05/23 06:18:34;;;;;;;7.63;2.05;;;11.10;99.90;;;;;;5136742;27;20176;-74
2021/05/23 06:21:00;;;;;;;7.22;2.22;;;11.20;99.90;;;;;;5136226;27;20215;-72
2021/05/23 06:23:26;;;;;;;4.72;2.10;;;11.20;99.90;;;;;;5137122;27;20175;-72
2021/05/23 06:25:54;;;;;;;11.93;2.22;;;11.10;99.90;;;;;;5137338;27;20556;-72
2021/05/23 06:28:20;;;;;;;7.10;1.55;;;11.10;99.90;;;;;;5136492;27;20164;-72
2021/05/23 06:30:46;;;;;;;10.40;2.67;;;11.10;99.90;;;;;;5118984;27;20187;-71
2021/05/23 06:33:12;;;;;;;6.45;2.08;;;11.20;99.90;;;;;;5136253;27;20211;-72
2021/05/23 06:35:38;;;;;;;6.38;2.10;;;11.20;99.90;;;;;;5136348;27;20550;-71
2021/05/23 06:38:04;;;;;;;6.30;1.77;;;11.30;99.90;;;;;;5136586;27;20647;-73
2021/05/23 06:40:30;;;;;;;16.77;2.42;;;11.20;99.90;;;;;;5137010;27;20218;-72
2021/05/23 06:42:56;;;;;;;8.23;2.33;;;11.10;99.90;;;;;;5136783;27;20187;-71
2021/05/23 06:45:22;;;;;;;6.60;1.70;;;11.00;99.90;;;;;;5136854;27;20172;-72
2021/05/23 06:47:49;;;;;;;6.18;2.30;;;11.00;99.90;;;;;;5136793;27;20172;-72
2021/05/23 06:50:15;;;;;;;5.00;1.50;;;11.00;99.90;;;;;;5136140;27;20184;-73
2021/05/23 06:52:41;;;;;;;5.20;2.17;;;10.90;99.90;;;;;;5135783;27;20172;-73
2021/05/23 06:55:07;;;;;;;86.35;13.77;;;10.90;99.90;;;;;;5139506;27;20650;-71
2021/05/23 06:57:33;;;;;;;8.48;1.90;;;10.90;99.90;;;;;;5141108;27;20191;-72
2021/05/23 07:00:00;;;;;;;3.10;1.25;;;11.00;99.90;;;;;;5115778;28;20675;-72
2021/05/23 07:02:26;;;;;;;6.70;1.97;;;11.10;99.90;;;;;;5124168;27;20648;-72
2021/05/23 07:04:52;;;;;;;12.23;1.77;;;11.20;99.90;;;;;;5115311;27;20214;-72
2021/05/23 07:07:18;;;;;;;539.83;64.57;;;11.30;99.90;;;;;;5135786;27;20172;-73
2021/05/23 07:09:44;;;;;;;;;;;11.60;99.90;;;;;;5135024;27;20378;-72
2021/05/23 07:12:10;;;;;;;578.95;125.65;;;11.80;99.90;;;;;;5135087;27;21209;-71
2021/05/23 07:14:36;;;;;;;6.77;1.80;;;11.90;99.90;;;;;;5135502;27;20385;-73
2021/05/23 07:17:02;;;;;;;8.45;2.10;;;11.70;99.90;;;;;;5116596;27;20365;-72
2021/05/23 07:19:28;;;;;;;13.38;2.33;;;11.60;99.90;;;;;;5136427;27;20176;-72
2021/05/23 07:21:55;;;;;;;6.28;1.67;;;11.60;99.90;;;;;;5135936;27;20182;-73
2021/05/23 07:24:21;;;;;;;6.93;1.88;;;11.50;99.90;;;;;;5136388;27;20171;-73
2021/05/23 07:26:47;;;;;;;10.18;3.90;;;11.40;99.90;;;;;;5136154;27;20176;-72
2021/05/23 07:29:13;;;;;;;6.93;1.60;;;11.40;99.90;;;;;;5134201;27;20168;-71
2021/05/23 07:31:39;;;;;;;3.58;1.45;;;11.40;99.90;;;;;;5141775;27;20176;-69
2021/05/23 07:34:05;;;;;;;7.80;1.33;;;11.40;99.90;;;;;;5135654;27;20164;-72
2021/05/23 07:36:31;;;;;;;4.03;1.52;;;11.40;99.90;;;;;;5117639;27;20164;-72
2021/05/23 07:38:57;;;;;;;3.92;1.23;;;11.60;99.90;;;;;;5135597;27;20176;-72
2021/05/23 07:41:23;;;;;;;6.60;1.20;;;11.80;99.90;;;;;;5117436;27;20207;-72
2021/05/23 07:43:50;;;;;;;3.90;1.30;;;11.80;99.90;;;;;;5135728;27;20168;-73
2021/05/23 07:46:16;;;;;;;6.18;1.33;;;11.60;99.90;;;;;;5133165;27;20188;-73
2021/05/23 07:48:42;;;;;;;5.30;1.00;;;11.70;99.90;;;;;;5139313;27;20629;-73
2021/05/23 07:51:08;;;;;;;12.27;6.15;;;11.60;99.90;;;;;;5124483;27;20542;-71
2021/05/23 07:53:34;;;;;;;1.83;0.95;;;11.60;99.90;;;;;;5132336;27;20180;-71
2021/05/23 07:56:00;;;;;;;1.92;1.27;;;11.50;99.90;;;;;;5133977;27;20183;-72
2021/05/23 07:58:27;;;;;;;4.75;1.35;;;11.50;99.90;;;;;;5134864;27;20181;-73
2021/05/23 08:00:53;;;;;;;4.25;1.00;;;11.50;99.90;;;;;;5134481;27;20214;-74
2021/05/23 08:03:20;;;;;;;4.65;1.17;;;11.50;99.90;;;;;;5116620;27;20203;-71
2021/05/23 08:05:46;;;;;;;4.55;1.10;;;11.50;99.90;;;;;;5115731;27;20184;-70
2021/05/23 08:08:12;;;;;;;3.35;1.40;;;11.50;99.90;;;;;;5133618;27;20176;-73
2021/05/23 08:10:38;;;;;;;3.13;1.00;;;11.50;99.90;;;;;;5134262;27;20184;-71
2021/05/23 08:13:04;;;;;;;2.00;1.10;;;11.60;99.90;;;;;;5134424;27;20179;-72
2021/05/23 08:15:31;;;;;;;2.47;1.10;;;11.30;99.90;;;;;;5118430;27;20172;-72
2021/05/23 08:17:58;;;;;;;4.35;1.25;;;11.40;99.90;;;;;;5134054;27;20180;-73
2021/05/23 08:20:24;;;;;;;7.97;1.20;;;11.40;99.90;;;;;;5133794;27;20204;-72
2021/05/23 08:22:50;;;;;;;5.00;1.25;;;11.50;99.90;;;;;;5133324;27;20180;-72
2021/05/23 08:25:16;;;;;;;1.90;1.20;;;11.50;99.90;;;;;;5136252;27;20183;-73
2021/05/23 08:27:42;;;;;;;6.28;1.60;;;11.50;99.90;;;;;;5140608;27;20164;-72
2021/05/23 08:30:09;;;;;;;9.73;1.25;;;11.60;99.90;;;;;;5123682;27;20644;-73
2021/05/23 08:32:36;;;;;;;7.53;0.70;;;11.60;99.90;;;;;;5144148;27;20219;-72
2021/05/23 08:35:03;;;;;;;2.70;1.00;;;11.60;99.90;;;;;;5134414;27;20180;-73
2021/05/23 08:37:29;;;;;;;3.10;0.60;;;11.70;99.90;;;;;;5141276;27;20171;-73
2021/05/23 08:39:55;;;;;;;4.53;1.00;;;11.80;99.90;;;;;;5137485;27;20245;-73
2021/05/23 08:42:21;;;;;;;6.50;0.90;;;11.80;99.90;;;;;;5135649;27;20188;-74
2021/05/23 08:44:48;;;;;;;6.10;1.08;;;11.80;99.90;;;;;;5132915;27;20541;-74
2021/05/23 08:47:14;;;;;;;2.22;1.00;;;11.90;99.90;;;;;;5131869;27;20172;-73
2021/05/23 08:49:41;;;;;;;3.15;1.20;;;12.00;99.90;;;;;;5133463;27;20198;-71
2021/05/23 08:52:07;;;;;;;7.35;1.30;;;12.00;99.90;;;;;;5130452;27;20532;-74
2021/05/23 08:54:40;;;;;;;6.30;1.30;;;11.80;99.90;;;;;;5124356;27;20179;-74
2021/05/23 08:57:07;;;;;;;6.18;1.23;;;11.80;99.90;;;;;;5134009;27;20178;-72
2021/05/23 08:59:33;;;;;;;2.63;1.15;;;11.80;99.90;;;;;;5134366;27;20175;-72
2021/05/23 09:02:08;;;;;;;11.60;1.35;;;11.70;99.90;;;;;;5133853;27;20648;-71
2021/05/23 09:04:34;;;;;;;11.50;1.55;;;11.70;99.90;;;;;;5115462;27;20208;-72
2021/05/23 09:07:04;;;;;;;4.85;1.67;;;11.70;99.90;;;;;;5131931;27;20674;-72
2021/05/23 09:09:44;;;;;;;10.45;1.50;;;11.80;99.90;;;;;;5133079;27;20168;-76
2021/05/23 09:12:11;;;;;;;4.93;1.10;;;11.80;99.90;;;;;;5096358;27;20157;-72
2021/05/23 09:14:39;;;;;;;1.95;0.82;;;11.80;99.90;;;;;;5126582;27;20180;-74
2021/05/23 09:17:06;;;;;;;6.32;1.50;;;11.70;99.90;;;;;;5115039;27;20632;-74
2021/05/23 09:19:39;;;;;;;5.15;1.30;;;11.80;99.90;;;;;;5131229;27;20187;-72
2021/05/23 09:22:09;;;;;;;2.58;0.57;;;11.80;99.90;;;;;;5122340;27;20195;-74
2021/05/23 09:24:52;;;;;;;2.72;0.82;;;11.80;99.90;;;;;;5133051;27;20168;-71
2021/05/23 09:27:18;;;;;;;4.70;0.88;;;11.80;99.90;;;;;;5100250;27;20529;-73
2021/05/23 09:29:45;;;;;;;6.80;1.15;;;11.90;99.90;;;;;;5148534;27;20179;-71
2021/05/23 09:32:18;;;;;;;3.50;1.27;;;11.90;99.90;;;;;;5143083;27;20595;-72
2021/05/23 09:34:47;;;;;;;8.05;1.33;;;12.00;99.90;;;;;;5136021;27;20164;-71
2021/05/23 09:37:14;;;;;;;7.38;1.30;;;12.00;99.90;;;;;;5116959;27;20187;-71
2021/05/23 09:39:40;;;;;;;7.75;1.67;;;12.10;99.90;;;;;;5141101;27;20187;-70
2021/05/23 09:42:10;;;;;;;6.78;1.38;;;12.20;99.90;;;;;;5133281;28;20195;-71
2021/05/23 09:44:37;;;;;;;3.70;1.70;;;12.20;99.90;;;;;;5132802;28;20175;-71
2021/05/23 09:47:11;;;;;;;12.40;2.30;;;12.20;99.90;;;;;;5114972;28;20176;-71
2021/05/23 09:49:46;;;;;;;3.20;1.50;;;12.30;99.90;;;;;;5132944;28;20163;-72
2021/05/23 09:52:14;;;;;;;8.68;1.88;;;12.20;99.90;;;;;;5129925;28;20174;-72
2021/05/23 09:54:51;;;;;;;4.35;1.60;;;12.30;99.90;;;;;;5133010;28;20160;-71
2021/05/23 09:57:21;;;;;;;8.15;1.77;;;12.30;99.90;;;;;;5135789;27;20186;-72
2021/05/23 10:00:04;;;;;;;9.40;1.50;;;12.20;99.90;;;;;;5133374;28;20550;-73
2021/05/23 10:02:30;;;;;;;5.38;1.30;;;12.10;99.90;;;;;;5102053;28;20636;-73
2021/05/23 10:05:06;;;;;;;12.27;1.65;;;12.10;99.90;;;;;;5094170;28;20197;-72
2021/05/23 10:07:33;;;;;;;6.57;1.85;;;12.00;99.90;;;;;;5117932;28;20175;-72
2021/05/23 10:10:00;;;;;;;7.68;2.40;;;12.00;99.90;;;;;;5131404;28;20176;-72
2021/05/23 10:12:26;;;;;;;13.10;2.58;;;12.10;99.90;;;;;;5113326;28;20175;-74
2021/05/23 10:14:52;;;;;;;17.40;2.30;;;12.00;99.90;;;;;;5113919;28;20173;-74
2021/05/23 10:17:18;;;;;;;14.15;2.33;;;12.10;99.90;;;;;;5131691;28;20176;-71
2021/05/23 10:19:45;;;;;;;14.93;2.20;;;12.10;99.90;;;;;;5113817;28;20553;-72
2021/05/23 10:22:11;;;;;;;8.40;1.63;;;12.00;99.90;;;;;;5128783;28;20212;-73
2021/05/23 10:24:43;;;;;;;10.40;1.90;;;12.00;99.90;;;;;;5130051;28;20516;-73
2021/05/23 10:27:11;;;;;;;12.33;2.10;;;12.10;99.90;;;;;;5095964;28;20187;-74
2021/05/23 10:29:39;;;;;;;10.30;1.90;;;12.10;99.90;;;;;;5125558;28;20219;-71
2021/05/23 10:32:09;;;;;;;17.67;2.17;;;12.10;99.90;;;;;;5108203;27;20231;-70
2021/05/23 10:34:36;;;;;;;3.85;1.70;;;12.00;99.90;;;;;;5107528;27;20171;-73
2021/05/23 10:37:02;;;;;;;16.20;2.60;;;12.00;99.90;;;;;;5123273;27;20176;-73
2021/05/23 10:39:35;;;;;;;15.68;2.28;;;12.00;99.90;;;;;;5102849;27;20196;-73
2021/05/23 10:42:03;;;;;;;13.57;2.75;;;12.00;99.90;;;;;;5122013;27;20184;-73
2021/05/23 10:44:42;;;;;;;8.98;2.28;;;11.90;99.90;;;;;;5124103;27;20160;-74
2021/05/23 10:47:13;;;;;;;9.20;2.90;;;11.90;99.90;;;;;;5110131;27;20636;-72
2021/05/23 10:50:09;;;;;;;17.92;2.67;;;11.90;99.90;;;;;;5128678;27;20160;-72
2021/05/23 10:52:35;;;;;;;18.83;5.40;;;11.90;99.90;;;;;;5110657;27;20184;-72
2021/05/23 10:55:05;;;;;;;8.02;2.42;;;11.80;99.90;;;;;;5123556;27;20175;-73
2021/05/23 10:57:48;;;;;;;8.68;2.75;;;11.70;99.90;;;;;;5126015;27;20176;-71
2021/05/23 11:00:37;;;;;;;17.67;2.95;;;11.70;99.90;;;;;;5123621;27;20171;-73
2021/05/23 11:03:16;;;;;;;12.85;2.58;;;11.70;99.90;;;;;;5121995;27;20208;-74
2021/05/23 11:05:43;;;;;;;19.45;3.63;;;11.70;99.90;;;;;;5124463;27;20162;-73
2021/05/23 11:08:12;;;;;;;23.80;3.08;;;11.80;99.90;;;;;;5129283;27;20192;-71
2021/05/23 11:10:42;;;;;;;24.30;3.60;;;11.80;99.90;;;;;;5127548;27;20183;-73
2021/05/23 11:13:29;;;;;;;16.83;3.03;;;11.70;99.90;;;;;;5126700;27;20175;-74
2021/05/23 11:15:55;;;;;;;14.63;3.28;;;11.70;99.90;;;;;;5124563;27;20183;-73
2021/05/23 11:18:26;;;;;;;14.25;3.17;;;11.80;99.90;;;;;;5131944;27;20172;-73
2021/05/23 11:20:58;;;;;;;18.65;4.47;;;11.80;99.90;;;;;;5134786;27;20214;-74
2021/05/23 11:23:25;;;;;;;20.50;3.72;;;11.80;99.90;;;;;;5134579;27;20199;-73
2021/05/23 11:26:04;;;;;;;22.55;3.17;;;11.80;99.90;;;;;;5116664;27;20536;-73
2021/05/23 11:28:30;;;;;;;13.93;3.08;;;11.70;99.90;;;;;;5135111;27;20167;-72
2021/05/23 11:30:57;;;;;;;12.05;3.03;;;11.80;99.90;;;;;;5134772;27;20207;-73
2021/05/23 11:33:23;;;;;;;16.48;3.67;;;11.70;99.90;;;;;;5134608;27;20212;-74
2021/05/23 11:35:50;;;;;;;22.85;3.80;;;11.70;99.90;;;;;;5134043;27;20176;-73
2021/05/23 11:38:16;;;;;;;11.50;3.45;;;11.80;99.90;;;;;;5122482;27;20175;-73
2021/05/23 11:40:43;;;;;;;19.13;4.60;;;11.70;99.90;;;;;;5126321;27;20651;-71
2021/05/23 11:43:09;;;;;;;17.45;3.53;;;11.80;99.90;;;;;;5137197;27;20179;-74
2021/05/23 11:45:36;;;;;;;11.23;3.15;;;11.80;99.90;;;;;;5143434;27;20168;-73
2021/05/23 11:48:06;;;;;;;24.88;3.55;;;11.90;99.90;;;;;;5117019;27;20178;-74
2021/05/23 11:50:33;;;;;;;24.45;5.20;;;11.90;99.90;;;;;;5116031;27;20180;-69
2021/05/23 11:52:59;;;;;;;14.18;3.60;;;11.80;99.90;;;;;;5134057;27;20179;-70
2021/05/23 11:55:30;;;;;;;13.25;3.70;;;11.80;99.90;;;;;;5115601;27;20616;-70
2021/05/23 11:58:09;;;;;;;20.83;3.65;;;11.80;99.90;;;;;;5099373;27;20640;-71
2021/05/23 12:00:36;;;;;;;13.52;3.60;;;11.80;99.90;;;;;;5137308;27;20182;-71
2021/05/23 12:03:02;;;;;;;19.65;4.18;;;11.80;99.90;;;;;;5121875;27;20199;-71
2021/05/23 12:05:42;;;;;;;14.30;3.78;;;11.80;99.90;;;;;;5115160;27;20179;-71
2021/05/23 12:08:21;;;;;;;21.38;4.35;;;11.90;99.90;;;;;;5116129;27;20176;-71
2021/05/23 12:11:02;;;;;;;23.80;5.68;;;12.00;99.90;;;;;;5134131;27;20175;-71
2021/05/23 12:13:45;;;;;;;13.55;3.88;;;11.90;99.90;;;;;;5133845;27;20199;-72
2021/05/23 12:16:13;;;;;;;16.50;4.35;;;12.00;99.90;;;;;;5133217;27;20179;-73
2021/05/23 12:18:44;;;;;;;18.67;3.90;;;12.00;99.90;;;;;;5115237;27;20172;-73
2021/05/23 12:21:12;;;;;;;7.95;3.47;;;12.00;99.90;;;;;;5132634;27;20184;-72
2021/05/23 12:23:38;;;;;;;18.92;4.50;;;12.20;99.90;;;;;;5110610;27;20175;-72
2021/05/23 12:26:09;;;;;;;17.55;4.70;;;12.20;99.90;;;;;;5099207;27;20285;-73
2021/05/23 12:28:40;;;;;;;10.43;3.80;;;12.20;99.90;;;;;;5114576;27;20542;-72
2021/05/23 12:31:07;;;;;;;11.68;3.70;;;12.30;99.90;;;;;;5108265;28;20242;-73
2021/05/23 12:33:33;;;;;;;21.88;5.18;;;12.30;99.90;;;;;;5128829;27;20207;-72
2021/05/23 12:36:07;;;;;;;12.73;4.43;;;12.30;99.90;;;;;;5133338;27;20179;-72